Time;durP1;ratioP1;P1;durP2;ratioP2;P2;SDS_P1;SDS_P2;PMS_P1;PMS_P2;Temp;Humidity;BMP_temperature;BMP_pressure;BME280_temperature;BME280_humidity;BME280_pressure;Samples;Min_cycle;Max_cycle;Signal;HPM_P1;HPM_P2
2023/05/27 00:01:45;;;;;;;;;;;9.80;99.90;;;;;;5135340;27;20362;-44
2023/05/27 00:04:11;;;;;;;;;;;9.80;99.90;;;;;;5132689;27;19911;-46
2023/05/27 00:06:36;;;;;;;;;;;9.80;99.90;;;;;;5131278;27;19919;-46
2023/05/27 00:09:02;;;;;;;;;;;9.80;99.90;;;;;;5135083;27;20384;-44
2023/05/27 00:11:27;;;;;;;;;;;9.70;99.90;;;;;;5135411;27;19952;-46
2023/05/27 00:13:53;;;;;;;;;;;9.70;99.90;;;;;;5134329;27;20011;-44
2023/05/27 00:16:19;;;;;;;;;;;9.60;99.90;;;;;;5135245;27;19907;-44
2023/05/27 00:18:45;;;;;;;;;;;9.60;99.90;;;;;;5132856;27;20282;-46
2023/05/27 00:21:10;;;;;;;;;;;9.60;99.90;;;;;;5132805;27;20354;-46
2023/05/27 00:23:36;;;;;;;;;;;9.60;99.90;;;;;;5135191;27;19907;-43
2023/05/27 00:26:01;;;;;;;;;;;9.60;99.90;;;;;;5134821;27;20007;-45
2023/05/27 00:28:28;;;;;;;;;;;9.60;99.90;;;;;;5134236;27;20378;-43
2023/05/27 00:30:54;;;;;;;;;;;9.50;99.90;;;;;;5134944;27;20330;-45
2023/05/27 00:33:21;;;;;;;;;;;9.50;99.90;;;;;;5134919;27;20354;-43
2023/05/27 00:35:46;;;;;;;;;;;9.50;99.90;;;;;;5131783;27;19926;-45
2023/05/27 00:38:12;;;;;;;;;;;9.40;99.90;;;;;;5134283;27;19907;-45
2023/05/27 00:40:39;;;;;;;;;;;9.40;99.90;;;;;;5114698;27;20316;-44
2023/05/27 00:43:04;;;;;;;;;;;9.40;99.90;;;;;;5113940;28;19912;-44
2023/05/27 00:45:30;;;;;;;;;;;9.40;99.90;;;;;;5114072;28;19965;-45
2023/05/27 00:47:56;;;;;;;;;;;9.40;99.90;;;;;;5112958;28;19916;-45
2023/05/27 00:50:22;;;;;;;;;;;9.40;99.90;;;;;;5124155;27;19998;-44
2023/05/27 00:52:47;;;;;;;;;;;9.30;99.90;;;;;;5134354;27;19957;-47
2023/05/27 00:55:13;;;;;;;;;;;9.30;99.90;;;;;;5133816;27;20013;-44
2023/05/27 00:57:38;;;;;;;;;;;9.30;99.90;;;;;;5132767;27;20002;-46
2023/05/27 01:00:08;;;;;;;;;;;9.20;99.90;;;;;;5133753;27;20449;-44
2023/05/27 01:02:33;;;;;;;;;;;9.20;99.90;;;;;;5133580;27;20370;-45
2023/05/27 01:04:59;;;;;;;;;;;9.20;99.90;;;;;;5132222;27;19912;-45
2023/05/27 01:07:47;;;;;;;;;;;9.20;99.90;;;;;;5134121;27;19951;-48
2023/05/27 01:10:22;;;;;;;;;;;9.20;99.90;;;;;;5085010;27;19907;-44
2023/05/27 01:12:55;;;;;;;;;;;9.20;99.90;;;;;;5131616;27;19964;-47
2023/05/27 01:15:21;;;;;;;;;;;9.10;99.90;;;;;;5134090;27;19952;-44
2023/05/27 01:17:47;;;;;;;;;;;9.10;99.90;;;;;;5133200;27;19915;-44
2023/05/27 01:20:14;;;;;;;;;;;9.10;99.90;;;;;;5131241;27;20325;-45
2023/05/27 01:22:43;;;;;;;;;;;9.00;99.90;;;;;;5133572;27;20581;-50
2023/05/27 01:25:09;;;;;;;;;;;9.00;99.90;;;;;;5133789;27;20285;-44
2023/05/27 01:27:34;;;;;;;;;;;9.00;99.90;;;;;;5133926;27;19911;-45
2023/05/27 01:30:00;;;;;;;;;;;9.00;99.90;;;;;;5131297;27;20543;-43
2023/05/27 01:32:44;;;;;;;;;;;9.00;99.90;;;;;;5133831;27;19915;-46
2023/05/27 01:35:22;;;;;;;;;;;8.90;99.90;;;;;;5131864;27;19926;-45
2023/05/27 01:37:50;;;;;;;;;;;8.90;99.90;;;;;;5132869;27;19914;-44
2023/05/27 01:40:16;;;;;;;;;;;8.80;99.90;;;;;;5133773;27;19988;-45
2023/05/27 01:42:43;;;;;;;;;;;8.80;99.90;;;;;;5133658;27;20370;-43
2023/05/27 01:45:08;;;;;;;;;;;8.70;99.90;;;;;;5132685;27;19907;-44
2023/05/27 01:47:34;;;;;;;;;;;8.70;99.90;;;;;;5133361;27;19912;-44
2023/05/27 01:50:00;;;;;;;;;;;8.70;99.90;;;;;;5131688;27;20285;-43
2023/05/27 01:52:25;;;;;;;;;;;8.70;99.90;;;;;;5132758;27;19964;-47
2023/05/27 01:54:51;;;;;;;;;;;8.70;99.90;;;;;;5133150;27;19960;-45
2023/05/27 01:57:17;;;;;;;;;;;8.70;99.90;;;;;;5133393;27;19907;-47
2023/05/27 01:59:42;;;;;;;;;;;8.70;99.90;;;;;;5132631;27;19912;-44
2023/05/27 02:02:08;;;;;;;;;;;8.70;99.90;;;;;;5132909;27;19915;-46
2023/05/27 02:04:33;;;;;;;;;;;8.60;99.90;;;;;;5133253;27;20314;-46
2023/05/27 02:07:00;;;;;;;;;;;8.60;99.90;;;;;;5130577;27;20263;-44
2023/05/27 02:09:25;;;;;;;;;;;8.60;99.90;;;;;;5133210;27;19915;-44
2023/05/27 02:11:51;;;;;;;;;;;8.60;99.90;;;;;;5133056;27;19907;-45
2023/05/27 02:14:17;;;;;;;;;;;8.60;99.90;;;;;;5132443;27;19997;-45
2023/05/27 02:16:43;;;;;;;;;;;8.60;99.90;;;;;;5133107;28;19908;-45
2023/05/27 02:19:08;;;;;;;;;;;8.60;99.90;;;;;;5132194;28;19908;-44
2023/05/27 02:21:35;;;;;;;;;;;8.60;99.90;;;;;;5131243;28;19918;-43
2023/05/27 02:24:01;;;;;;;;;;;8.50;99.90;;;;;;5132911;28;19907;-44
2023/05/27 02:26:27;;;;;;;;;;;8.50;99.90;;;;;;5132246;28;20397;-44
2023/05/27 02:28:53;;;;;;;;;;;8.50;99.90;;;;;;5132636;28;20360;-44
2023/05/27 02:31:19;;;;;;;;;;;8.50;99.90;;;;;;5132901;28;20010;-45
2023/05/27 02:33:45;;;;;;;;;;;8.50;99.90;;;;;;5132140;28;19962;-52
2023/05/27 02:36:10;;;;;;;;;;;8.50;99.90;;;;;;5131100;28;19920;-43
2023/05/27 02:38:36;;;;;;;;;;;8.50;99.90;;;;;;5133017;28;20376;-45
2023/05/27 02:41:02;;;;;;;;;;;8.50;99.90;;;;;;5131924;28;19907;-45
2023/05/27 02:43:27;;;;;;;;;;;8.60;99.90;;;;;;5132883;28;19914;-48
2023/05/27 02:45:53;;;;;;;;;;;8.60;99.90;;;;;;5132590;28;20273;-49
2023/05/27 02:48:18;;;;;;;;;;;8.60;99.90;;;;;;5131957;28;19916;-45
2023/05/27 02:50:44;;;;;;;;;;;8.60;99.90;;;;;;5131647;28;20270;-45
2023/05/27 02:53:10;;;;;;;;;;;8.60;99.90;;;;;;5131769;28;19915;-44
2023/05/27 02:55:36;;;;;;;;;;;8.60;99.90;;;;;;5131944;28;20414;-46
2023/05/27 02:58:02;;;;;;;;;;;8.60;99.90;;;;;;5132372;28;20385;-46
2023/05/27 03:00:28;;;;;;;;;;;8.60;99.90;;;;;;5132626;28;19914;-47
2023/05/27 03:02:53;;;;;;;;;;;8.60;99.90;;;;;;5131628;28;20285;-44
2023/05/27 03:05:18;;;;;;;;;;;8.60;99.90;;;;;;5132680;28;19908;-44
2023/05/27 03:07:44;;;;;;;;;;;8.60;99.90;;;;;;5130872;28;19919;-46
2023/05/27 03:10:10;;;;;;;;;;;8.50;99.90;;;;;;5131917;28;19908;-46
2023/05/27 03:12:35;;;;;;;;;;;8.50;99.90;;;;;;5130860;28;19922;-45
2023/05/27 03:15:01;;;;;;;;;;;8.40;99.90;;;;;;5132189;28;19914;-44
2023/05/27 03:17:26;;;;;;;;;;;8.50;99.90;;;;;;5131746;28;19908;-45
2023/05/27 03:19:52;;;;;;;;;;;8.50;99.90;;;;;;5132339;28;19926;-45
2023/05/27 03:22:17;;;;;;;;;;;8.50;99.90;;;;;;5132295;27;19908;-47
2023/05/27 03:24:44;;;;;;;;;;;8.60;99.90;;;;;;5136311;27;19912;-46
2023/05/27 03:27:10;;;;;;;;;;;8.60;99.90;;;;;;5136260;27;19915;-43
2023/05/27 03:29:35;;;;;;;;;;;8.70;99.90;;;;;;5135232;27;20385;-45
2023/05/27 03:32:01;;;;;;;;;;;8.70;99.90;;;;;;5134834;27;19911;-43
2023/05/27 03:34:26;;;;;;;;;;;8.80;99.90;;;;;;5136164;27;20365;-43
2023/05/27 03:36:52;;;;;;;;;;;8.80;99.90;;;;;;5133208;27;20006;-45
2023/05/27 03:39:17;;;;;;;;;;;8.90;99.90;;;;;;5136031;27;19915;-44
2023/05/27 03:41:45;;;;;;;;;;;8.90;99.90;;;;;;5135049;27;20404;-49
2023/05/27 03:44:10;;;;;;;;;;;9.00;99.90;;;;;;5135036;27;19950;-46
2023/05/27 03:46:35;;;;;;;;;;;9.00;99.90;;;;;;5135872;27;19907;-45
2023/05/27 03:49:02;;;;;;;;;;;9.20;99.90;;;;;;5135455;27;19916;-44
2023/05/27 03:51:27;;;;;;;;;;;9.20;99.90;;;;;;5135058;27;19915;-46
2023/05/27 03:53:53;;;;;;;;;;;9.20;99.90;;;;;;5133928;27;19911;-45
2023/05/27 03:56:18;;;;;;;;;;;9.20;99.90;;;;;;5135582;27;19961;-45
2023/05/27 03:58:44;;;;;;;;;;;9.20;99.90;;;;;;5134950;27;19998;-45
2023/05/27 04:01:09;;;;;;;;;;;9.30;99.90;;;;;;5135495;27;20419;-44
2023/05/27 04:03:35;;;;;;;;;;;9.30;99.90;;;;;;5135525;27;19915;-46
2023/05/27 04:06:00;;;;;;;;;;;9.40;99.90;;;;;;5134573;27;20273;-43
2023/05/27 04:08:27;;;;;;;;;;;9.40;99.90;;;;;;5131431;27;19919;-45
2023/05/27 04:10:53;;;;;;;;;;;9.40;99.90;;;;;;5135224;27;19907;-44
2023/05/27 04:13:18;;;;;;;;;;;9.40;99.90;;;;;;5134461;27;19911;-45
2023/05/27 04:15:44;;;;;;;;;;;9.50;99.90;;;;;;5135321;27;19907;-44
2023/05/27 04:18:10;;;;;;;;;;;9.50;99.90;;;;;;5135296;27;19907;-45
2023/05/27 04:20:40;;;;;;;;;;;9.60;99.90;;;;;;5134395;27;20400;-47
2023/05/27 04:23:09;;;;;;;;;;;9.60;99.90;;;;;;5133231;27;19911;-43
2023/05/27 04:25:35;;;;;;;;;;;9.70;99.90;;;;;;5134257;27;19914;-45
2023/05/27 04:28:03;;;;;;;;;;;9.70;99.90;;;;;;5134638;27;19915;-44
2023/05/27 04:30:32;;;;;;;;;;;9.70;99.90;;;;;;5135027;27;20194;-45
2023/05/27 04:32:59;;;;;;;;;;;9.80;99.90;;;;;;5132873;27;20449;-45
2023/05/27 04:35:25;;;;;;;;;;;9.80;99.90;;;;;;5134670;27;19919;-44
2023/05/27 04:37:50;;;;;;;;;;;9.90;99.90;;;;;;5132882;27;19918;-46
2023/05/27 04:40:16;;;;;;;;;;;9.90;99.90;;;;;;5133956;27;19911;-44
2023/05/27 04:42:43;;;;;;;;;;;9.90;99.90;;;;;;5134859;27;19925;-46
2023/05/27 04:45:10;;;;;;;;;;;10.00;99.90;;;;;;5134447;27;19908;-45
2023/05/27 04:47:37;;;;;;;;;;;10.00;99.90;;;;;;5133258;27;20141;-44
2023/05/27 04:50:05;;;;;;;;;;;10.10;99.90;;;;;;5134340;27;19908;-45
2023/05/27 04:52:36;;;;;;;;;;;10.10;99.90;;;;;;5134524;27;19908;-46
2023/05/27 04:55:05;;;;;;;;;;;10.20;99.90;;;;;;5132437;27;19911;-45
2023/05/27 04:57:30;;;;;;;;;;;10.20;99.90;;;;;;5134409;27;19949;-44
2023/05/27 05:00:17;;;;;;;;;;;10.20;99.90;;;;;;5134203;27;19949;-45
2023/05/27 05:02:43;;;;;;;;;;;10.30;99.90;;;;;;5133822;27;19907;-44
2023/05/27 05:05:09;;;;;;;;;;;10.30;99.90;;;;;;5133338;27;19918;-44
2023/05/27 05:07:37;;;;;;;;;;;10.40;99.90;;;;;;5134121;27;20334;-45
2023/05/27 05:10:07;;;;;;;;;;;10.40;99.90;;;;;;5131540;27;19919;-44
2023/05/27 05:12:32;;;;;;;;;;;10.40;99.90;;;;;;5130465;27;20060;-44
2023/05/27 05:14:58;;;;;;;;;;;10.40;99.90;;;;;;5132868;27;19958;-48
2023/05/27 05:17:24;;;;;;;;;;;10.40;99.90;;;;;;5133384;27;19914;-47
2023/05/27 05:19:49;;;;;;;;;;;10.40;99.90;;;;;;5133803;27;19976;-43
2023/05/27 05:22:18;;;;;;;;;;;10.50;99.90;;;;;;5133573;27;20369;-47
2023/05/27 05:24:46;;;;;;;;;;;10.50;99.90;;;;;;5131591;27;20330;-44
2023/05/27 05:27:12;;;;;;;;;;;10.50;99.90;;;;;;5133971;27;19907;-44
2023/05/27 05:29:38;;;;;;;;;;;10.50;99.90;;;;;;5133363;27;20106;-45
2023/05/27 05:32:03;;;;;;;;;;;10.60;99.90;;;;;;5132423;27;19907;-48
2023/05/27 05:34:29;;;;;;;;;;;10.60;99.90;;;;;;5133763;27;19939;-45
2023/05/27 05:36:55;;;;;;;;;;;10.60;99.90;;;;;;5132527;27;19920;-44
2023/05/27 05:39:20;;;;;;;;;;;10.60;99.90;;;;;;5131990;27;19957;-46
2023/05/27 05:41:46;;;;;;;;;;;10.70;99.90;;;;;;5133439;27;19908;-44
2023/05/27 05:44:12;;;;;;;;;;;10.70;99.90;;;;;;5132587;27;19907;-44
2023/05/27 05:46:37;;;;;;;;;;;10.70;99.90;;;;;;5133600;27;19990;-45
2023/05/27 05:49:03;;;;;;;;;;;10.70;99.90;;;;;;5133256;27;19938;-45
2023/05/27 05:51:29;;;;;;;;;;;10.70;99.90;;;;;;5130376;27;19946;-47
2023/05/27 05:53:54;;;;;;;;;;;10.70;99.90;;;;;;5130974;27;19950;-46
2023/05/27 05:56:21;;;;;;;;;;;10.70;99.90;;;;;;5131391;27;19918;-48
2023/05/27 05:58:47;;;;;;;;;;;10.70;99.90;;;;;;5123623;27;19912;-45
2023/05/27 06:01:12;;;;;;;;;;;10.70;99.90;;;;;;5112768;28;19952;-45
2023/05/27 06:03:38;;;;;;;;;;;10.80;99.90;;;;;;5112724;28;19958;-45
2023/05/27 06:06:03;;;;;;;;;;;10.80;99.90;;;;;;5111703;28;19912;-49
2023/05/27 06:08:30;;;;;;;;;;;10.80;99.90;;;;;;5112551;28;19916;-45
2023/05/27 06:10:55;;;;;;;;;;;10.90;99.90;;;;;;5127382;27;20060;-44
2023/05/27 06:13:21;;;;;;;;;;;10.90;99.90;;;;;;5111823;28;20417;-45
2023/05/27 06:15:46;;;;;;;;;;;10.90;99.90;;;;;;5112508;28;19908;-46
2023/05/27 06:18:12;;;;;;;;;;;11.00;99.90;;;;;;5111812;28;19914;-46
2023/05/27 06:20:37;;;;;;;;;;;11.00;99.90;;;;;;5112523;28;19908;-49
2023/05/27 06:23:03;;;;;;;;;;;11.10;99.90;;;;;;5112328;28;20301;-46
2023/05/27 06:25:28;;;;;;;;;;;11.10;99.90;;;;;;5120254;28;19912;-46
2023/05/27 06:27:54;;;;;;;;;;;11.10;99.90;;;;;;5131796;28;19919;-47
2023/05/27 06:30:19;;;;;;;;;;;11.20;99.90;;;;;;5133084;28;19954;-46
2023/05/27 06:32:45;;;;;;;;;;;11.30;99.90;;;;;;5131976;28;19965;-47
2023/05/27 06:35:10;;;;;;;;;;;11.30;99.90;;;;;;5132810;28;20057;-46
2023/05/27 06:37:36;;;;;;;;;;;11.40;99.90;;;;;;5133003;28;19963;-47
2023/05/27 06:40:01;;;;;;;;;;;11.40;99.90;;;;;;5130229;28;19911;-45
2023/05/27 06:42:27;;;;;;;;;;;11.50;99.90;;;;;;5132980;28;20180;-45
2023/05/27 06:44:52;;;;;;;;;;;11.50;99.90;;;;;;5132640;28;19908;-46
2023/05/27 06:47:18;;;;;;;;;;;11.60;99.90;;;;;;5132002;28;20334;-46
2023/05/27 06:49:44;;;;;;;;;;;11.70;99.90;;;;;;5132797;28;20122;-46
2023/05/27 06:52:09;;;;;;;;;;;11.80;99.90;;;;;;5132705;28;19907;-45
2023/05/27 06:54:36;;;;;;;;;;;11.80;99.90;;;;;;5132041;28;20422;-45
2023/05/27 06:57:01;;;;;;;;;;;11.90;99.90;;;;;;5132537;27;19911;-46
2023/05/27 06:59:27;;;;;;;;;;;11.90;99.90;;;;;;5136902;27;19907;-46
2023/05/27 07:01:52;;;;;;;;;;;12.00;99.90;;;;;;5135743;27;19915;-45
2023/05/27 07:04:18;;;;;;;;;;;12.00;99.90;;;;;;5136740;27;19908;-45
2023/05/27 07:06:43;;;;;;;;;;;12.10;99.90;;;;;;5136574;27;19919;-46
2023/05/27 07:09:11;;;;;;;;;;;12.20;99.90;;;;;;5135840;27;19916;-48
2023/05/27 07:11:36;;;;;;;;;;;12.20;99.90;;;;;;5134893;27;19941;-45
2023/05/27 07:14:02;;;;;;;;;;;12.30;99.90;;;;;;5131323;27;19916;-46
2023/05/27 07:16:27;;;;;;;;;;;12.40;99.90;;;;;;5132566;27;19978;-46
2023/05/27 07:18:52;;;;;;;;;;;12.40;99.90;;;;;;5136183;27;20210;-46
2023/05/27 07:21:18;;;;;;;;;;;12.50;99.90;;;;;;5136544;27;19908;-46
2023/05/27 07:23:43;;;;;;;;;;;12.50;99.90;;;;;;5135419;27;19911;-47
2023/05/27 07:26:09;;;;;;;;;;;12.60;99.90;;;;;;5133401;27;19950;-48
2023/05/27 07:28:35;;;;;;;;;;;12.70;99.90;;;;;;5133123;27;19923;-48
2023/05/27 07:31:00;;;;;;;;;;;12.70;99.90;;;;;;5136056;27;19959;-45
2023/05/27 07:33:26;;;;;;;;;;;12.80;99.90;;;;;;5136082;27;19911;-46
2023/05/27 07:35:51;;;;;;;;;;;12.80;99.90;;;;;;5134798;27;20350;-49
2023/05/27 07:38:17;;;;;;;;;;;12.90;99.90;;;;;;5136084;27;19965;-48
2023/05/27 07:40:42;;;;;;;;;;;12.90;99.90;;;;;;5134308;27;19919;-45
2023/05/27 07:43:08;;;;;;;;;;;13.00;99.90;;;;;;5135200;27;19938;-47
2023/05/27 07:45:33;;;;;;;;;;;13.10;99.90;;;;;;5135898;27;19908;-47
2023/05/27 07:47:59;;;;;;;;;;;13.20;99.90;;;;;;5135438;27;20022;-46
2023/05/27 07:50:24;;;;;;;;;;;13.30;99.90;;;;;;5135030;27;20010;-46
2023/05/27 07:52:50;;;;;;;;;;;13.40;99.90;;;;;;5135504;27;19911;-48
2023/05/27 07:55:16;;;;;;;;;;;13.40;99.90;;;;;;5135771;27;20370;-46
2023/05/27 07:57:43;;;;;;;;;;;13.50;99.90;;;;;;5133226;27;19911;-46
2023/05/27 08:00:09;;;;;;;;;;;13.50;99.90;;;;;;5135539;27;19989;-45
2023/05/27 08:02:35;;;;;;;;;;;13.60;99.90;;;;;;5135415;27;19912;-45
2023/05/27 08:05:00;;;;;;;;;;;13.60;99.90;;;;;;5134702;27;19908;-45
2023/05/27 08:07:26;;;;;;;;;;;13.60;99.90;;;;;;5135248;27;19985;-50
2023/05/27 08:09:51;;;;;;;;;;;13.70;99.90;;;;;;5135204;27;19952;-45
2023/05/27 08:12:17;;;;;;;;;;;13.80;99.90;;;;;;5130984;27;19915;-46
2023/05/27 08:14:43;;;;;;;;;;;13.80;99.90;;;;;;5135421;27;19907;-48
2023/05/27 08:17:08;;;;;;;;;;;13.90;99.90;;;;;;5134908;27;19942;-47
2023/05/27 08:19:34;;;;;;;;;;;14.00;99.90;;;;;;5134484;27;19951;-46
2023/05/27 08:22:01;;;;;;;;;;;14.10;99.90;;;;;;5134956;27;19914;-46
2023/05/27 08:24:27;;;;;;;;;;;14.20;99.90;;;;;;5135095;27;19965;-46
2023/05/27 08:26:53;;;;;;;;;;;14.30;99.90;;;;;;5131469;27;20286;-47
2023/05/27 08:29:19;;;;;;;;;;;14.40;99.90;;;;;;5135047;27;19922;-46
2023/05/27 08:31:44;;;;;;;;;;;14.40;99.90;;;;;;5134120;27;19908;-52
2023/05/27 08:34:10;;;;;;;;;;;14.50;99.90;;;;;;5134964;27;19907;-47
2023/05/27 08:36:35;;;;;;;;;;;14.60;99.90;;;;;;5134571;27;19946;-47
2023/05/27 08:39:02;;;;;;;;;;;14.60;99.90;;;;;;5134030;27;20037;-46
2023/05/27 08:41:28;;;;;;;;;;;14.70;99.90;;;;;;5133709;27;19907;-47
2023/05/27 08:43:53;;;;;;;;;;;14.80;99.90;;;;;;5134521;27;19953;-45
2023/05/27 08:46:20;;;;;;;;;;;14.90;99.90;;;;;;5133975;27;20421;-47
2023/05/27 08:48:46;;;;;;;;;;;14.90;99.90;;;;;;5134456;27;19916;-47
2023/05/27 08:51:12;;;;;;;;;;;15.10;99.90;;;;;;5134772;27;19999;-45
2023/05/27 08:53:38;;;;;;;;;;;15.20;99.90;;;;;;5133790;27;19908;-46
2023/05/27 08:56:05;;;;;;;;;;;15.30;99.90;;;;;;5134409;27;19915;-46
2023/05/27 08:58:31;;;;;;;;;;;15.40;99.90;;;;;;5132756;27;20357;-46
2023/05/27 09:00:57;;;;;;;;;;;15.50;99.90;;;;;;5133406;27;19975;-48
2023/05/27 09:03:23;;;;;;;;;;;15.60;99.90;;;;;;5134471;27;20358;-46
2023/05/27 09:05:48;;;;;;;;;;;15.60;99.90;;;;;;5133999;27;19907;-47
2023/05/27 09:08:14;;;;;;;;;;;15.70;99.90;;;;;;5131850;27;19981;-49
2023/05/27 09:10:40;;;;;;;;;;;15.80;99.90;;;;;;5134198;27;19911;-46
2023/05/27 09:13:06;;;;;;;;;;;15.90;99.90;;;;;;5132859;27;19908;-46
2023/05/27 09:15:31;;;;;;;;;;;16.10;99.90;;;;;;5133443;27;20327;-47
2023/05/27 09:17:57;;;;;;;;;;;16.10;99.90;;;;;;5134007;27;19912;-47
2023/05/27 09:20:26;;;;;;;;;;;16.20;99.90;;;;;;5133485;27;19908;-47
2023/05/27 09:23:02;;;;;;;;;;;16.20;99.90;;;;;;5128581;27;19956;-50
2023/05/27 09:25:28;;;;;;;;;;;16.40;99.90;;;;;;5133035;27;19911;-45
2023/05/27 09:27:54;;;;;;;;;;;16.40;99.90;;;;;;5126801;27;20328;-46
2023/05/27 09:30:20;;;;;;;;;;;16.40;99.90;;;;;;5112638;28;19912;-47
2023/05/27 09:32:46;;;;;;;;;;;16.40;99.90;;;;;;5113037;28;19931;-46
2023/05/27 09:35:12;;;;;;;;;;;16.50;99.90;;;;;;5112422;28;20359;-46
2023/05/27 09:37:37;;;;;;;;;;;16.50;99.90;;;;;;5113199;28;20290;-48
2023/05/27 09:40:08;;;;;;;;;;;16.70;99.90;;;;;;5113035;28;19911;-46
2023/05/27 09:42:40;;;;;;;;;;;16.70;99.90;;;;;;5117856;27;19911;-46
2023/05/27 09:45:09;;;;;;;;;;;16.80;99.90;;;;;;5133448;27;19913;-47
2023/05/27 09:47:37;;;;;;;;;;;16.90;99.90;;;;;;5133363;27;19915;-49
2023/05/27 09:50:03;;;;;;;;;;;17.00;99.90;;;;;;5132649;27;19907;-50
2023/05/27 09:52:28;;;;;;;;;;;17.10;99.90;;;;;;5133269;27;19908;-47
2023/05/27 09:54:54;;;;;;;;;;;17.10;99.90;;;;;;5130500;27;19911;-50
2023/05/27 09:57:20;;;;;;;;;;;17.20;99.90;;;;;;5130766;27;20346;-48
2023/05/27 09:59:46;;;;;;;;;;;17.40;99.90;;;;;;5133107;27;19907;-45
2023/05/27 10:02:13;;;;;;;;;;;17.40;99.90;;;;;;5131024;27;19955;-49
2023/05/27 10:04:39;;;;;;;;;;;17.60;99.90;;;;;;5132494;27;20014;-47
2023/05/27 10:07:04;;;;;;;;;;;17.60;98.50;;;;;;5133222;27;20000;-47
2023/05/27 10:09:31;;;;;;;;;;;17.60;98.00;;;;;;5132997;27;19916;-45
2023/05/27 10:11:56;;;;;;;;;;;17.70;98.30;;;;;;5128602;27;20354;-48
2023/05/27 10:14:22;;;;;;;;;;;17.80;99.60;;;;;;5133260;27;19908;-47
2023/05/27 10:16:51;;;;;;;;;;;17.90;99.20;;;;;;5132730;27;19907;-52
2023/05/27 10:19:17;;;;;;;;;;;18.00;99.10;;;;;;5132338;27;20373;-47
2023/05/27 10:21:43;;;;;;;;;;;18.10;97.90;;;;;;5131186;27;19922;-46
2023/05/27 10:24:10;;;;;;;;;;;18.30;97.70;;;;;;5132706;28;19915;-48
2023/05/27 10:26:40;;;;;;;;;;;18.40;97.60;;;;;;5130585;28;19915;-47
2023/05/27 10:29:15;;;;;;;;;;;18.40;96.30;;;;;;5132833;28;19925;-48
2023/05/27 10:31:50;;;;;;;;;;;18.40;95.40;;;;;;5133929;27;19907;-46
2023/05/27 10:34:16;;;;;;;;;;;18.50;96.40;;;;;;5137327;27;19915;-46
2023/05/27 10:36:43;;;;;;;;;;;18.50;96.00;;;;;;5136815;27;19919;-50
2023/05/27 10:39:13;;;;;;;;;;;18.60;96.10;;;;;;5136293;27;19908;-45
2023/05/27 10:41:42;;;;;;;;;;;18.70;95.70;;;;;;5136852;27;20346;-49
2023/05/27 10:44:08;;;;;;;;;;;18.80;95.70;;;;;;5136647;27;19922;-47
2023/05/27 10:46:37;;;;;;;;;;;18.90;95.40;;;;;;5136395;27;19907;-48
2023/05/27 10:49:21;;;;;;;;;;;19.00;94.80;;;;;;5136736;27;19923;-46
2023/05/27 10:51:47;;;;;;;;;;;19.10;94.80;;;;;;5136112;27;19911;-47
2023/05/27 10:54:14;;;;;;;;;;;19.00;92.80;;;;;;5136283;27;20006;-49
2023/05/27 10:56:49;;;;;;;;;;;19.10;93.00;;;;;;5136931;27;19907;-51
2023/05/27 10:59:19;;;;;;;;;;;19.30;93.20;;;;;;5135313;27;19911;-50
2023/05/27 11:01:46;;;;;;;;;;;19.30;94.00;;;;;;5135826;27;19912;-52
2023/05/27 11:04:11;;;;;;;;;;;19.50;94.40;;;;;;5136877;27;20446;-48
2023/05/27 11:06:37;;;;;;;;;;;19.60;94.00;;;;;;5135877;27;19907;-49
2023/05/27 11:09:03;;;;;;;;;;;19.60;93.30;;;;;;5136291;27;20397;-47
2023/05/27 11:11:29;;;;;;;;;;;19.60;92.70;;;;;;5136600;27;19947;-47
2023/05/27 11:13:55;;;;;;;;;;;19.70;92.20;;;;;;5134034;27;19943;-46
2023/05/27 11:16:20;;;;;;;;;;;19.70;91.10;;;;;;5136409;27;19998;-47
2023/05/27 11:18:46;;;;;;;;;;;19.70;92.20;;;;;;5136253;27;19960;-52
2023/05/27 11:21:14;;;;;;;;;;;19.80;92.20;;;;;;5135585;27;19908;-48
2023/05/27 11:23:42;;;;;;;;;;;19.80;92.20;;;;;;5136292;27;19908;-47
2023/05/27 11:26:12;;;;;;;;;;;20.00;93.00;;;;;;5136139;27;19908;-47
2023/05/27 11:28:44;;;;;;;;;;;20.00;91.40;;;;;;5131864;27;20381;-47
2023/05/27 11:31:09;;;;;;;;;;;20.00;91.70;;;;;;5136400;27;19907;-50
2023/05/27 11:33:35;;;;;;;;;;;20.00;92.20;;;;;;5136077;27;19968;-47
2023/05/27 11:36:05;;;;;;;;;;;20.10;90.80;;;;;;5134983;27;19946;-47
2023/05/27 11:38:30;;;;;;;;;;;20.20;91.20;;;;;;5135943;27;20009;-45
2023/05/27 11:41:06;;;;;;;;;;;20.10;90.00;;;;;;5135839;27;20362;-45
2023/05/27 11:43:32;;;;;;;;;;;20.20;90.40;;;;;;5133477;27;20241;-46
2023/05/27 11:46:03;;;;;;;;;;;20.30;90.10;;;;;;5135749;27;19911;-46
2023/05/27 11:48:28;;;;;;;;;;;20.40;88.10;;;;;;5135915;27;19938;-46
2023/05/27 11:50:54;;;;;;;;;;;20.50;88.00;;;;;;5134931;27;20325;-48
2023/05/27 11:53:20;;;;;;;;;;;20.50;86.70;;;;;;5135559;27;19907;-47
2023/05/27 11:55:45;;;;;;;;;;;20.60;87.70;;;;;;5134776;27;19914;-49
2023/05/27 11:58:11;;;;;;;;;;;20.70;87.10;;;;;;5133280;27;19915;-48
2023/05/27 12:00:36;;;;;;;;;;;20.70;84.60;;;;;;5115102;28;19911;-45
2023/05/27 12:03:02;;;;;;;;;;;20.80;86.70;;;;;;5113784;28;20344;-48
2023/05/27 12:05:27;;;;;;;;;;;20.80;84.30;;;;;;5115053;28;19912;-46
2023/05/27 12:07:52;;;;;;;;;;;20.80;83.80;;;;;;5114824;28;20270;-49
2023/05/27 12:10:18;;;;;;;;;;;20.90;85.00;;;;;;5114160;28;19912;-53
2023/05/27 12:12:44;;;;;;;;;;;21.10;85.40;;;;;;5115094;28;19916;-51
2023/05/27 12:15:10;;;;;;;;;;;21.20;85.40;;;;;;5128442;27;20374;-50
2023/05/27 12:17:35;;;;;;;;;;;21.20;86.20;;;;;;5134627;27;20002;-54
2023/05/27 12:20:01;;;;;;;;;;;21.40;84.60;;;;;;5135091;27;20285;-50
2023/05/27 12:22:26;;;;;;;;;;;21.60;84.30;;;;;;5135285;27;19912;-50
2023/05/27 12:24:52;;;;;;;;;;;21.70;85.10;;;;;;5134235;27;20258;-50
2023/05/27 12:27:19;;;;;;;;;;;21.80;83.00;;;;;;5135087;27;19907;-50
2023/05/27 12:29:44;;;;;;;;;;;21.90;82.00;;;;;;5132982;27;19912;-61
2023/05/27 12:32:09;;;;;;;;;;;22.00;81.80;;;;;;5118757;27;19912;-46
2023/05/27 12:34:35;;;;;;;;;;;22.20;82.50;;;;;;5114618;28;19947;-49
2023/05/27 12:37:00;;;;;;;;;;;22.40;81.40;;;;;;5114006;28;20362;-48
2023/05/27 12:39:26;;;;;;;;;;;22.60;80.40;;;;;;5113644;28;19908;-51
2023/05/27 12:41:51;;;;;;;;;;;22.70;79.10;;;;;;5114112;28;20008;-48
2023/05/27 12:44:18;;;;;;;;;;;22.80;77.60;;;;;;5118325;27;20188;-47
2023/05/27 12:46:43;;;;;;;;;;;22.90;77.00;;;;;;5134078;27;19907;-52
2023/05/27 12:49:09;;;;;;;;;;;23.10;77.30;;;;;;5134537;27;19923;-48
2023/05/27 12:51:34;;;;;;;;;;;23.30;75.60;;;;;;5134947;27;19954;-47
2023/05/27 12:54:00;;;;;;;;;;;23.60;75.20;;;;;;5133002;27;20354;-48
2023/05/27 12:56:25;;;;;;;;;;;23.70;74.30;;;;;;5134600;27;19965;-47
2023/05/27 12:58:51;;;;;;;;;;;23.70;71.10;;;;;;5134459;27;19914;-47
2023/05/27 13:01:16;;;;;;;;;;;23.80;70.70;;;;;;5132178;27;20374;-47
2023/05/27 13:03:42;;;;;;;;;;;23.90;70.80;;;;;;5133810;27;19911;-48
2023/05/27 13:06:08;;;;;;;;;;;24.00;71.20;;;;;;5133685;27;19908;-46
2023/05/27 13:08:33;;;;;;;;;;;24.20;70.60;;;;;;5134369;27;20270;-48
2023/05/27 13:10:59;;;;;;;;;;;24.50;73.10;;;;;;5134307;27;19995;-48
2023/05/27 13:13:24;;;;;;;;;;;24.70;71.90;;;;;;5133767;27;19908;-49
2023/05/27 13:15:50;;;;;;;;;;;24.80;70.00;;;;;;5131267;27;20361;-50
2023/05/27 13:18:15;;;;;;;;;;;25.00;70.60;;;;;;5133156;27;19915;-49
2023/05/27 13:20:41;;;;;;;;;;;25.20;69.60;;;;;;5133408;27;19922;-46
2023/05/27 13:23:07;;;;;;;;;;;25.40;67.60;;;;;;5133738;27;19914;-48
2023/05/27 13:25:32;;;;;;;;;;;25.40;65.00;;;;;;5133922;27;19915;-49
2023/05/27 13:27:58;;;;;;;;;;;25.40;65.60;;;;;;5133029;27;20422;-48
2023/05/27 13:30:23;;;;;;;;;;;25.40;65.70;;;;;;5132159;27;20010;-50
2023/05/27 13:32:49;;;;;;;;;;;25.40;66.10;;;;;;5133675;27;20375;-47
2023/05/27 13:35:14;;;;;;;;;;;25.60;67.20;;;;;;5132870;27;20262;-51
2023/05/27 13:37:40;;;;;;;;;;;25.80;65.90;;;;;;5133830;27;19907;-49
2023/05/27 13:40:07;;;;;;;;;;;25.90;65.60;;;;;;5133437;27;19911;-49
2023/05/27 13:42:32;;;;;;;;;;;25.90;64.30;;;;;;5132892;27;20419;-47
2023/05/27 13:44:58;;;;;;;;;;;25.80;62.60;;;;;;5130546;27;19920;-46
2023/05/27 13:47:23;;;;;;;;;;;25.90;64.30;;;;;;5113036;28;19908;-47
2023/05/27 13:49:49;;;;;;;;;;;26.00;64.40;;;;;;5112129;28;19908;-47
2023/05/27 13:52:15;;;;;;;;;;;26.20;63.00;;;;;;5113035;28;19915;-49
2023/05/27 13:54:40;;;;;;;;;;;26.40;62.70;;;;;;5113097;28;19960;-47
2023/05/27 13:57:06;;;;;;;;;;;26.50;63.00;;;;;;5112231;28;19908;-47
2023/05/27 13:59:31;;;;;;;;;;;26.50;62.30;;;;;;5112920;28;20379;-47
2023/05/27 14:01:57;;;;;;;;;;;26.50;63.10;;;;;;5128373;27;20228;-47
2023/05/27 14:04:22;;;;;;;;;;;26.80;62.30;;;;;;5132900;27;19912;-46
2023/05/27 14:06:48;;;;;;;;;;;26.90;61.20;;;;;;5132842;27;19961;-51
2023/05/27 14:09:13;;;;;;;;;;;27.00;61.10;;;;;;5133345;27;19915;-47
2023/05/27 14:11:38;;;;;;;;;;;27.00;61.00;;;;;;5132678;27;19922;-48
2023/05/27 14:14:04;;;;;;;;;;;27.10;60.70;;;;;;5132939;27;19918;-52
2023/05/27 14:16:29;;;;;;;;;;;27.30;62.20;;;;;;5130956;27;19976;-47